Terminal Aerodrome Forecast
Issued by NWS

Home | Current Version | Previous Version | Text Only | Print | Product List | Glossary On
Versions: 1 2 3 4 5 6 7 8 9 10 11 12 13 14 15 16 17
000
FTUS45 KVEF 222320
TAFBIH
TAF
KBIH 222320Z 2300/2324 33010G17KT P6SM VCSH SCT070 BKN200
     FM230800 34008KT P6SM BKN060
     FM232000 17010KT P6SM FEW060=

USA.gov is the U.S. government's official web portal to all federal, state and local government web resources and services.